Portland, Oregon
Traffic Map
Current Weather Conditions
Portland, Oregon
Overcast
Overcast
47°
Feels Like: 42°
Wind Chill: 42° Ceiling: 3200
Heat Index: 47° Visibility: 10mi
Dew Point: 42° Wind: 12mph
Humidity: 83% Direction: 190° (S)
Pressure: 29.53in Gusts: 0mph
Raw Report DataKPDX 220053Z 19010KT 10SM SCT021 BKN032 OVC045 08/06 A2953 RMK AO2 RAE04 SLP997 P0000 T00830056
Traffic Incident Summary
Active as of:
Severity:
Category:
InformationThere was an issue retrieving the traffic information for this location. Please try a different location or try again shortly.
Advertisements
Track Severe Weather on mobile